createdAt,value
2022-12-11T00:01:25.978Z,2.08
2022-12-11T00:04:29.564Z,3.15
2022-12-11T00:07:32.909Z,6.23
2022-12-11T00:10:37.911Z,4.72
2022-12-11T00:13:42.506Z,9.38
2022-12-11T00:16:49.139Z,1.80
2022-12-11T00:19:53.174Z,7.10
2022-12-11T00:22:57.915Z,2.65
2022-12-11T00:26:02.147Z,4.60
2022-12-11T00:29:06.031Z,6.53
2022-12-11T00:32:09.680Z,8.32
2022-12-11T00:35:13.794Z,16.38
2022-12-11T00:38:19.913Z,14.77
2022-12-11T00:41:23.716Z,9.10
2022-12-11T00:44:27.916Z,14.48
2022-12-11T00:47:31.266Z,10.15
2022-12-11T00:50:35.833Z,8.90
2022-12-11T00:53:40.259Z,9.47
2022-12-11T00:56:44.031Z,8.95
2022-12-11T00:59:48.164Z,7.25
2022-12-11T01:02:52.624Z,11.45
2022-12-11T01:05:56.421Z,9.37
2022-12-11T01:09:18.740Z,4.55
2022-12-11T01:12:22.340Z,8.40
2022-12-11T01:15:30.656Z,9.50
2022-12-11T01:18:35.619Z,11.23
2022-12-11T01:21:39.172Z,7.72
2022-12-11T01:24:51.957Z,10.20
2022-12-11T01:27:56.434Z,10.70
2022-12-11T01:31:00.218Z,9.17
2022-12-11T01:34:03.292Z,9.38
2022-12-11T01:37:06.267Z,16.75
2022-12-11T01:40:12.305Z,9.55
2022-12-11T01:43:15.347Z,9.80
2022-12-11T01:46:19.307Z,7.20
2022-12-11T01:49:27.408Z,14.70
2022-12-11T01:52:30.799Z,10.20
2022-12-11T01:55:35.387Z,13.10
2022-12-11T01:58:47.862Z,9.77
2022-12-11T02:02:05.716Z,10.90
2022-12-11T02:05:10.385Z,18.77
2022-12-11T02:08:14.039Z,12.63
2022-12-11T02:11:22.777Z,13.90
2022-12-11T02:14:42.574Z,13.77
2022-12-11T02:17:51.821Z,7.65
2022-12-11T02:21:08.563Z,6.97
2022-12-11T02:24:42.843Z,4.10
2022-12-11T02:27:54.028Z,7.80
2022-12-11T02:31:15.140Z,17.97
2022-12-11T02:34:29.903Z,9.90
2022-12-11T02:37:37.289Z,6.22
2022-12-11T02:40:43.151Z,6.47
2022-12-11T02:43:48.730Z,8.38
2022-12-11T02:46:53.762Z,16.00
2022-12-11T02:50:01.198Z,7.43
2022-12-11T02:53:07.618Z,9.95
2022-12-11T02:56:22.979Z,11.85
2022-12-11T02:59:47.162Z,6.53
2022-12-11T03:02:50.927Z,9.77
2022-12-11T03:05:54.913Z,9.52
2022-12-11T03:08:58.981Z,16.98
2022-12-11T03:12:03.314Z,8.37
2022-12-11T03:15:11.912Z,6.53
2022-12-11T03:18:39.632Z,9.15
2022-12-11T03:22:12.402Z,12.07
2022-12-11T03:25:26.979Z,13.15
2022-12-11T03:28:44.538Z,12.50
2022-12-11T03:32:02.208Z,9.80
2022-12-11T03:35:14.768Z,11.63
2022-12-11T03:38:25.557Z,17.00
2022-12-11T03:41:32.126Z,17.73
2022-12-11T03:44:36.754Z,22.88
2022-12-11T03:47:42.655Z,15.98
2022-12-11T03:50:48.600Z,16.17
2022-12-11T03:53:53.300Z,14.48
2022-12-11T03:56:59.898Z,12.67
2022-12-11T04:00:07.314Z,15.85
2022-12-11T04:03:14.930Z,16.00
2022-12-11T04:06:19.179Z,14.80
2022-12-11T04:09:22.926Z,15.05
2022-12-11T04:12:27.075Z,13.97
2022-12-11T04:15:30.397Z,16.05
2022-12-11T04:18:52.239Z,14.23
2022-12-11T04:22:13.725Z,17.00
2022-12-11T04:25:17.095Z,15.50
2022-12-11T04:28:20.866Z,17.63
2022-12-11T04:31:24.884Z,17.63
2022-12-11T04:34:29.080Z,17.58
2022-12-11T04:37:32.366Z,16.15
2022-12-11T04:40:36.210Z,18.55
2022-12-11T04:43:40.372Z,13.03
2022-12-11T04:46:43.786Z,24.20
2022-12-11T04:49:47.430Z,12.13
2022-12-11T04:52:51.408Z,16.50
2022-12-11T04:55:55.045Z,21.10
2022-12-11T04:58:58.708Z,27.30
2022-12-11T05:02:02.189Z,25.80
2022-12-11T05:05:07.384Z,29.10
2022-12-11T05:08:11.532Z,31.02
2022-12-11T05:11:16.389Z,27.92
2022-12-11T05:14:20.450Z,17.87
2022-12-11T05:17:24.243Z,29.40
2022-12-11T05:20:29.916Z,38.55
2022-12-11T05:23:34.306Z,66.18
2022-12-11T05:26:38.431Z,39.05
2022-12-11T05:29:42.075Z,47.43
2022-12-11T05:32:46.278Z,31.52
2022-12-11T05:35:50.649Z,26.27
2022-12-11T05:38:55.125Z,22.00
2022-12-11T05:41:58.924Z,33.25
2022-12-11T05:45:02.717Z,20.13
2022-12-11T05:48:06.524Z,23.17
2022-12-11T05:51:11.541Z,15.57
2022-12-11T05:54:15.893Z,20.35
2022-12-11T05:57:19.917Z,23.38
2022-12-11T06:00:23.768Z,18.87
2022-12-11T06:03:28.031Z,20.33
2022-12-11T06:06:32.285Z,18.10
2022-12-11T06:09:36.400Z,27.98
2022-12-11T06:12:39.979Z,27.13
2022-12-11T06:15:44.097Z,21.53
2022-12-11T06:18:48.693Z,41.88
2022-12-11T06:21:52.762Z,27.80
2022-12-11T06:24:56.585Z,23.27
2022-12-11T06:28:00.604Z,20.52
2022-12-11T06:31:05.119Z,24.63
2022-12-11T06:34:10.401Z,22.70
2022-12-11T06:37:14.588Z,26.80
2022-12-11T06:40:18.717Z,42.47
2022-12-11T06:43:22.401Z,49.20
2022-12-11T06:46:26.495Z,50.57
2022-12-11T06:49:31.068Z,25.02
2022-12-11T06:52:34.835Z,40.58
2022-12-11T06:55:38.713Z,35.10
2022-12-11T06:58:44.830Z,43.70
2022-12-11T07:01:48.755Z,51.50
2022-12-11T07:04:55.186Z,30.33
2022-12-11T07:07:59.336Z,28.38
2022-12-11T07:11:05.612Z,39.47
2022-12-11T07:14:09.795Z,85.63
2022-12-11T07:17:13.807Z,60.30
2022-12-11T07:20:17.836Z,79.30
2022-12-11T07:23:22.518Z,54.67
2022-12-11T07:26:26.443Z,66.80
2022-12-11T07:29:30.748Z,81.55
2022-12-11T07:32:34.644Z,94.40
2022-12-11T07:35:38.803Z,62.53
2022-12-11T07:38:42.882Z,64.22
2022-12-11T07:41:48.049Z,49.35
2022-12-11T07:44:53.628Z,51.92
2022-12-11T07:47:57.615Z,51.13
2022-12-11T07:51:15.822Z,44.38
2022-12-11T07:54:21.894Z,55.25
2022-12-11T07:57:25.741Z,56.17
2022-12-11T08:00:29.772Z,54.80
2022-12-11T08:03:33.031Z,49.23
2022-12-11T08:06:40.067Z,46.80
2022-12-11T08:09:43.705Z,103.07
2022-12-11T08:12:47.723Z,65.30
2022-12-11T08:15:54.595Z,58.37
2022-12-11T08:18:59.379Z,113.38
2022-12-11T08:22:02.756Z,78.38
2022-12-11T08:25:07.381Z,54.90
2022-12-11T08:28:11.062Z,62.70
2022-12-11T08:31:16.588Z,46.00
2022-12-11T08:34:20.376Z,60.97
2022-12-11T08:37:24.752Z,32.95
2022-12-11T08:40:28.439Z,39.13
2022-12-11T08:43:35.073Z,51.83
2022-12-11T08:46:39.015Z,33.60
2022-12-11T08:49:42.832Z,48.83
2022-12-11T08:52:46.593Z,46.40
2022-12-11T08:55:50.989Z,45.20
2022-12-11T08:58:55.414Z,52.00
2022-12-11T09:01:59.553Z,33.30
2022-12-11T09:05:02.651Z,54.15
2022-12-11T09:08:06.826Z,57.80
2022-12-11T09:11:14.572Z,55.95
2022-12-11T09:14:17.915Z,71.68
2022-12-11T09:17:21.664Z,66.57
2022-12-11T09:20:25.337Z,141.05
2022-12-11T09:23:28.900Z,141.73
2022-12-11T09:26:33.089Z,163.15
2022-12-11T09:29:36.787Z,62.38
2022-12-11T09:32:40.565Z,42.33
2022-12-11T09:35:43.887Z,40.55
2022-12-11T09:38:47.950Z,34.25
2022-12-11T09:42:09.332Z,29.13
2022-12-11T09:45:16.491Z,35.40
2022-12-11T09:48:24.872Z,31.60
2022-12-11T09:51:33.612Z,74.05
2022-12-11T09:54:37.329Z,124.03
2022-12-11T09:58:14.064Z,152.52
2022-12-11T10:01:41.919Z,133.77
2022-12-11T10:05:10.369Z,120.47
2022-12-11T10:08:26.186Z,126.75
2022-12-11T10:12:05.662Z,145.23
2022-12-11T10:15:26.801Z,165.30
2022-12-11T10:18:32.372Z,156.00
2022-12-11T10:21:41.207Z,170.75
2022-12-11T10:25:11.084Z,49.55
2022-12-11T10:28:19.655Z,42.65
2022-12-11T10:31:44.423Z,32.45
2022-12-11T10:34:50.135Z,35.33
2022-12-11T10:37:58.964Z,39.40
2022-12-11T10:41:06.186Z,39.40
2022-12-11T10:44:27.209Z,47.00
2022-12-11T10:47:30.644Z,75.43
2022-12-11T10:50:34.753Z,246.97
2022-12-11T10:53:38.120Z,283.15
2022-12-11T10:56:41.613Z,272.98
2022-12-11T10:59:48.582Z,254.18
2022-12-11T11:02:52.680Z,276.63
2022-12-11T11:06:17.715Z,275.77
2022-12-11T11:09:39.058Z,238.70
2022-12-11T11:12:45.600Z,233.75
2022-12-11T11:15:50.020Z,251.25
2022-12-11T11:18:56.433Z,239.07
2022-12-11T11:22:02.755Z,169.43
2022-12-11T11:25:06.642Z,134.82
2022-12-11T11:28:26.941Z,146.35
2022-12-11T11:31:35.755Z,153.80
2022-12-11T11:34:39.969Z,129.20
2022-12-11T11:37:50.266Z,94.23
2022-12-11T11:41:38.692Z,98.93
2022-12-11T11:44:57.760Z,69.45
2022-12-11T11:48:18.333Z,86.10
2022-12-11T11:52:05.208Z,104.43
2022-12-11T11:55:29.375Z,87.13
2022-12-11T11:58:47.401Z,88.38
2022-12-11T12:01:54.966Z,80.22
2022-12-11T12:04:58.088Z,98.90
2022-12-11T12:08:16.509Z,92.20
2022-12-11T12:11:42.372Z,54.23
2022-12-11T12:15:14.585Z,49.38
2022-12-11T12:18:40.004Z,70.47
2022-12-11T12:21:48.590Z,83.45
2022-12-11T12:25:24.835Z,53.65
2022-12-11T12:28:31.270Z,58.80
2022-12-11T12:32:02.620Z,66.18
2022-12-11T12:35:31.958Z,66.05
2022-12-11T12:38:52.214Z,62.67
2022-12-11T12:42:22.060Z,61.25
2022-12-11T12:45:41.067Z,57.40
2022-12-11T12:48:46.770Z,56.55
2022-12-11T12:51:51.823Z,68.18
2022-12-11T12:55:17.132Z,65.65
2022-12-11T12:58:43.700Z,54.10
2022-12-11T13:01:53.306Z,53.83
2022-12-11T13:05:04.038Z,45.42
2022-12-11T13:08:07.274Z,52.63
2022-12-11T13:11:13.413Z,47.28
2022-12-11T13:14:17.335Z,55.50
2022-12-11T13:17:23.351Z,45.47
2022-12-11T13:20:31.517Z,43.53
2022-12-11T13:23:35.807Z,44.22
2022-12-11T13:26:40.722Z,39.67
2022-12-11T13:29:44.507Z,52.27
2022-12-11T13:33:24.028Z,45.85
2022-12-11T13:36:31.968Z,51.63
2022-12-11T13:39:40.939Z,38.28
2022-12-11T13:43:00.073Z,33.33
2022-12-11T13:46:11.467Z,35.60
2022-12-11T13:49:24.722Z,36.75
2022-12-11T13:52:29.438Z,31.80
2022-12-11T13:55:35.155Z,33.55
2022-12-11T13:58:41.544Z,34.23
2022-12-11T14:01:44.574Z,31.65
2022-12-11T14:04:50.404Z,31.05
2022-12-11T14:07:59.409Z,38.78
2022-12-11T14:11:03.215Z,39.42
2022-12-11T14:14:17.042Z,40.70
2022-12-11T14:17:31.027Z,50.72
2022-12-11T14:20:35.897Z,45.42
2022-12-11T14:23:39.659Z,46.08
2022-12-11T14:26:51.887Z,47.80
2022-12-11T14:29:55.928Z,47.78
2022-12-11T14:33:03.134Z,46.95
2022-12-11T14:36:07.296Z,42.47
2022-12-11T14:39:34.845Z,44.55
2022-12-11T14:42:43.853Z,51.03
2022-12-11T14:45:50.642Z,40.00
2022-12-11T14:49:01.622Z,54.05
2022-12-11T14:52:06.185Z,35.60
2022-12-11T14:55:13.596Z,44.20
2022-12-11T14:58:24.122Z,36.40
2022-12-11T15:01:33.078Z,40.78
2022-12-11T15:04:37.363Z,34.92
2022-12-11T15:07:44.223Z,38.20
2022-12-11T15:11:10.238Z,38.72
2022-12-11T15:14:16.374Z,41.50
2022-12-11T15:17:20.272Z,37.28
2022-12-11T15:20:32.866Z,45.15
2022-12-11T15:23:57.166Z,42.72
2022-12-11T15:27:01.797Z,37.97
2022-12-11T15:30:29.549Z,36.47
2022-12-11T15:33:34.577Z,22.95
2022-12-11T15:36:38.991Z,33.33
2022-12-11T15:39:42.834Z,25.35
2022-12-11T15:42:48.305Z,13.93
2022-12-11T15:45:51.358Z,14.00
2022-12-11T15:48:54.957Z,12.43
2022-12-11T15:51:58.790Z,10.95
2022-12-11T15:55:02.955Z,10.43
2022-12-11T15:58:09.807Z,11.47
2022-12-11T16:01:14.131Z,12.93
2022-12-11T16:04:17.779Z,8.95
2022-12-11T16:07:26.792Z,11.80
2022-12-11T16:10:30.649Z,22.57
2022-12-11T16:13:34.356Z,15.75
2022-12-11T16:16:37.981Z,9.32
2022-12-11T16:19:42.816Z,9.98
2022-12-11T16:22:46.570Z,10.60
2022-12-11T16:25:50.913Z,9.25
2022-12-11T16:28:54.685Z,8.30
2022-12-11T16:31:57.694Z,8.32
2022-12-11T16:35:01.649Z,6.22
2022-12-11T16:38:05.961Z,8.23
2022-12-11T16:41:09.749Z,6.15
2022-12-11T16:44:13.958Z,7.32
2022-12-11T16:47:17.675Z,6.70
2022-12-11T16:50:21.913Z,11.43
2022-12-11T16:53:26.271Z,5.25
2022-12-11T16:56:30.067Z,11.95
2022-12-11T16:59:37.238Z,5.13
2022-12-11T17:02:41.831Z,7.05
2022-12-11T17:05:45.546Z,5.47
2022-12-11T17:08:49.145Z,8.13
2022-12-11T17:11:53.845Z,7.82
2022-12-11T17:14:58.014Z,7.25
2022-12-11T17:18:01.310Z,8.27
2022-12-11T17:21:15.062Z,7.90
2022-12-11T17:24:18.526Z,7.72
2022-12-11T17:27:22.257Z,8.13
2022-12-11T17:30:25.898Z,7.33
2022-12-11T17:33:30.095Z,9.43
2022-12-11T17:36:34.687Z,9.40
2022-12-11T17:39:39.668Z,5.20
2022-12-11T17:42:45.351Z,7.50
2022-12-11T17:45:53.009Z,11.65
2022-12-11T17:48:57.209Z,14.45
2022-12-11T17:52:01.343Z,4.90
2022-12-11T17:55:06.533Z,9.90
2022-12-11T17:58:16.280Z,5.80
2022-12-11T18:01:20.458Z,5.97
2022-12-11T18:04:23.679Z,8.50
2022-12-11T18:07:27.428Z,8.95
2022-12-11T18:10:31.086Z,9.00
2022-12-11T18:13:34.215Z,8.25
2022-12-11T18:16:39.275Z,2.95
2022-12-11T18:19:46.081Z,12.73
2022-12-11T18:22:50.075Z,4.95
2022-12-11T18:25:53.815Z,8.40
2022-12-11T18:28:57.599Z,7.82
2022-12-11T18:32:01.229Z,8.98
2022-12-11T18:35:05.757Z,16.10
2022-12-11T18:38:11.080Z,6.93
2022-12-11T18:41:15.562Z,4.60
2022-12-11T18:44:23.135Z,7.83
2022-12-11T18:47:27.539Z,8.02
2022-12-11T18:50:31.221Z,7.20
2022-12-11T18:53:35.853Z,5.50
2022-12-11T18:56:39.339Z,7.13
2022-12-11T18:59:43.376Z,7.72
2022-12-11T19:02:47.148Z,4.38
2022-12-11T19:05:50.853Z,5.85
2022-12-11T19:08:54.520Z,12.77
2022-12-11T19:11:58.495Z,6.38
2022-12-11T19:15:02.278Z,5.30
2022-12-11T19:18:06.400Z,10.77
2022-12-11T19:21:12.442Z,3.17
2022-12-11T19:24:20.582Z,6.22
2022-12-11T19:27:24.659Z,7.05
2022-12-11T19:30:28.767Z,10.35
2022-12-11T19:33:32.359Z,9.13
2022-12-11T19:36:38.112Z,7.40
2022-12-11T19:39:41.732Z,4.53
2022-12-11T19:42:45.860Z,5.18
2022-12-11T19:45:49.838Z,5.47
2022-12-11T19:48:55.055Z,12.45
2022-12-11T19:51:58.679Z,6.28
2022-12-11T19:55:04.654Z,8.57
2022-12-11T19:58:08.320Z,7.30
2022-12-11T20:01:25.504Z,6.13
2022-12-11T20:04:29.384Z,8.95
2022-12-11T20:07:33.174Z,4.43
2022-12-11T20:10:37.503Z,4.22
2022-12-11T20:13:41.920Z,7.47
2022-12-11T20:17:10.098Z,5.40
2022-12-11T20:20:10.686Z,2.70
2022-12-11T20:23:14.037Z,4.35
2022-12-11T20:26:24.280Z,3.75
2022-12-11T20:29:28.263Z,5.53
2022-12-11T20:32:31.901Z,8.70
2022-12-11T20:35:34.970Z,5.43
2022-12-11T20:38:39.136Z,6.28
2022-12-11T20:41:42.825Z,10.35
2022-12-11T20:44:49.245Z,7.93
2022-12-11T20:47:53.347Z,3.30
2022-12-11T20:51:03.756Z,5.47
2022-12-11T20:54:06.979Z,6.03
2022-12-11T20:57:11.520Z,4.28
2022-12-11T21:00:15.713Z,8.57
2022-12-11T21:03:20.023Z,7.47
2022-12-11T21:06:26.538Z,8.33
2022-12-11T21:09:30.403Z,5.18
2022-12-11T21:12:34.393Z,6.70
2022-12-11T21:15:40.310Z,3.45
2022-12-11T21:18:44.851Z,2.78
2022-12-11T21:21:49.598Z,6.13
2022-12-11T21:24:53.014Z,5.32
2022-12-11T21:27:57.172Z,3.77
2022-12-11T21:31:04.088Z,5.45
2022-12-11T21:34:08.407Z,14.93
2022-12-11T21:37:12.067Z,7.85
2022-12-11T21:40:15.579Z,6.63
2022-12-11T21:43:19.423Z,11.20
2022-12-11T21:46:26.303Z,7.75
2022-12-11T21:49:29.634Z,5.00
2022-12-11T21:52:33.697Z,7.60
2022-12-11T21:55:41.813Z,5.43
2022-12-11T21:58:46.465Z,6.68
2022-12-11T22:01:50.280Z,6.13
2022-12-11T22:04:55.134Z,7.60
2022-12-11T22:07:58.380Z,3.13
2022-12-11T22:11:02.457Z,5.80
2022-12-11T22:14:07.472Z,10.95
2022-12-11T22:17:11.063Z,8.30
2022-12-11T22:20:15.099Z,11.82
2022-12-11T22:23:18.994Z,6.70
2022-12-11T22:26:26.808Z,7.88
2022-12-11T22:29:30.289Z,13.88
2022-12-11T22:32:33.591Z,9.40
2022-12-11T22:35:37.929Z,7.60
2022-12-11T22:38:41.662Z,10.15
2022-12-11T22:41:45.666Z,14.67
2022-12-11T22:44:49.319Z,3.00
2022-12-11T22:47:53.438Z,11.00
2022-12-11T22:50:56.986Z,13.40
2022-12-11T22:54:02.129Z,11.50
2022-12-11T22:57:05.767Z,10.85
2022-12-11T23:00:12.026Z,17.05
2022-12-11T23:03:15.811Z,13.17
2022-12-11T23:06:22.860Z,19.27
2022-12-11T23:09:26.719Z,7.38
2022-12-11T23:12:30.468Z,8.50
2022-12-11T23:15:34.559Z,11.90
2022-12-11T23:18:38.506Z,12.75
2022-12-11T23:21:42.985Z,6.05
2022-12-11T23:24:48.153Z,11.57
2022-12-11T23:27:51.621Z,13.40
2022-12-11T23:30:55.968Z,11.43
2022-12-11T23:33:59.890Z,8.03
2022-12-11T23:37:04.131Z,9.43
2022-12-11T23:40:09.621Z,8.27
2022-12-11T23:43:13.642Z,10.68
2022-12-11T23:46:20.982Z,7.55
2022-12-11T23:49:25.126Z,4.80
2022-12-11T23:52:28.730Z,10.60
2022-12-11T23:55:32.937Z,5.10
2022-12-11T23:58:38.033Z,10.00
